sensor_id;sensor_type;location;lat;lon;timestamp;P1;durP1;ratioP1;P2;durP2;ratioP2
26181;SDS011;13927;51.534;11.866;2022-09-13T00:02:09;11.82;;;10.63;;
26181;SDS011;13927;51.534;11.866;2022-09-13T00:04:35;13.90;;;12.10;;
26181;SDS011;13927;51.534;11.866;2022-09-13T00:07:00;14.15;;;12.70;;
26181;SDS011;13927;51.534;11.866;2022-09-13T00:09:26;13.55;;;12.15;;
26181;SDS011;13927;51.534;11.866;2022-09-13T00:11:52;13.35;;;12.15;;
26181;SDS011;13927;51.534;11.866;2022-09-13T00:14:18;12.95;;;11.65;;
26181;SDS011;13927;51.534;11.866;2022-09-13T00:16:45;13.00;;;11.70;;
26181;SDS011;13927;51.534;11.866;2022-09-13T00:19:10;13.07;;;11.95;;
26181;SDS011;13927;51.534;11.866;2022-09-13T00:21:36;12.93;;;11.68;;
26181;SDS011;13927;51.534;11.866;2022-09-13T00:24:02;12.80;;;11.68;;
26181;SDS011;13927;51.534;11.866;2022-09-13T00:26:32;11.93;;;10.88;;
26181;SDS011;13927;51.534;11.866;2022-09-13T00:28:58;14.30;;;12.88;;
26181;SDS011;13927;51.534;11.866;2022-09-13T00:31:24;14.07;;;12.85;;
26181;SDS011;13927;51.534;11.866;2022-09-13T00:33:52;14.25;;;12.90;;
26181;SDS011;13927;51.534;11.866;2022-09-13T00:36:18;13.27;;;12.05;;
26181;SDS011;13927;51.534;11.866;2022-09-13T00:38:44;13.77;;;11.70;;
26181;SDS011;13927;51.534;11.866;2022-09-13T00:41:14;12.52;;;11.43;;
26181;SDS011;13927;51.534;11.866;2022-09-13T00:43:54;14.00;;;12.60;;
26181;SDS011;13927;51.534;11.866;2022-09-13T00:49:20;14.40;;;13.00;;
26181;SDS011;13927;51.534;11.866;2022-09-13T00:51:59;15.27;;;12.57;;
26181;SDS011;13927;51.534;11.866;2022-09-13T00:54:37;15.98;;;14.45;;
26181;SDS011;13927;51.534;11.866;2022-09-13T00:57:11;15.00;;;13.48;;
26181;SDS011;13927;51.534;11.866;2022-09-13T01:02:08;15.50;;;13.95;;
26181;SDS011;13927;51.534;11.866;2022-09-13T01:04:34;16.35;;;14.65;;
26181;SDS011;13927;51.534;11.866;2022-09-13T01:07:06;14.55;;;13.13;;
26181;SDS011;13927;51.534;11.866;2022-09-13T01:09:34;16.25;;;14.73;;
26181;SDS011;13927;51.534;11.866;2022-09-13T01:14:46;17.23;;;15.43;;
26181;SDS011;13927;51.534;11.866;2022-09-13T01:17:12;20.40;;;18.33;;
26181;SDS011;13927;51.534;11.866;2022-09-13T01:19:38;19.05;;;17.15;;
26181;SDS011;13927;51.534;11.866;2022-09-13T01:22:08;18.83;;;16.60;;
26181;SDS011;13927;51.534;11.866;2022-09-13T01:31:34;18.67;;;16.88;;
26181;SDS011;13927;51.534;11.866;2022-09-13T01:34:59;19.70;;;17.70;;
26181;SDS011;13927;51.534;11.866;2022-09-13T01:37:53;21.05;;;18.52;;
26181;SDS011;13927;51.534;11.866;2022-09-13T01:40:58;19.58;;;17.48;;
26181;SDS011;13927;51.534;11.866;2022-09-13T01:49:56;18.25;;;16.35;;
26181;SDS011;13927;51.534;11.866;2022-09-13T01:53:19;19.05;;;17.25;;
26181;SDS011;13927;51.534;11.866;2022-09-13T02:01:18;17.55;;;15.75;;
26181;SDS011;13927;51.534;11.866;2022-09-13T02:03:53;22.50;;;18.65;;
26181;SDS011;13927;51.534;11.866;2022-09-13T02:06:33;19.35;;;17.45;;
26181;SDS011;13927;51.534;11.866;2022-09-13T02:09:10;18.67;;;16.92;;
26181;SDS011;13927;51.534;11.866;2022-09-13T02:11:45;18.38;;;16.45;;
26181;SDS011;13927;51.534;11.866;2022-09-13T02:14:24;18.42;;;16.52;;
26181;SDS011;13927;51.534;11.866;2022-09-13T02:22:02;19.27;;;17.50;;
26181;SDS011;13927;51.534;11.866;2022-09-13T02:24:32;19.30;;;17.33;;
26181;SDS011;13927;51.534;11.866;2022-09-13T02:27:04;18.63;;;16.83;;
26181;SDS011;13927;51.534;11.866;2022-09-13T02:32:47;16.85;;;15.15;;
26181;SDS011;13927;51.534;11.866;2022-09-13T02:38:10;15.32;;;13.77;;
26181;SDS011;13927;51.534;11.866;2022-09-13T02:40:54;14.95;;;13.27;;
26181;SDS011;13927;51.534;11.866;2022-09-13T02:43:37;16.20;;;13.38;;
26181;SDS011;13927;51.534;11.866;2022-09-13T02:49:47;16.95;;;15.10;;
26181;SDS011;13927;51.534;11.866;2022-09-13T02:52:25;17.88;;;14.52;;
26181;SDS011;13927;51.534;11.866;2022-09-13T03:01:18;16.83;;;14.75;;
26181;SDS011;13927;51.534;11.866;2022-09-13T03:03:45;15.20;;;13.57;;
26181;SDS011;13927;51.534;11.866;2022-09-13T03:06:11;16.90;;;14.27;;
26181;SDS011;13927;51.534;11.866;2022-09-13T03:08:37;16.33;;;14.40;;
26181;SDS011;13927;51.534;11.866;2022-09-13T03:11:23;14.07;;;12.68;;
26181;SDS011;13927;51.534;11.866;2022-09-13T03:20:08;14.48;;;12.98;;
26181;SDS011;13927;51.534;11.866;2022-09-13T03:23:12;14.18;;;12.77;;
26181;SDS011;13927;51.534;11.866;2022-09-13T03:32:51;12.88;;;11.57;;
26181;SDS011;13927;51.534;11.866;2022-09-13T03:35:36;13.48;;;12.07;;
26181;SDS011;13927;51.534;11.866;2022-09-13T03:38:27;15.38;;;12.05;;
26181;SDS011;13927;51.534;11.866;2022-09-13T03:41:23;17.17;;;13.73;;
26181;SDS011;13927;51.534;11.866;2022-09-13T03:43:57;15.55;;;13.55;;
26181;SDS011;13927;51.534;11.866;2022-09-13T03:46:40;16.08;;;13.75;;
26181;SDS011;13927;51.534;11.866;2022-09-13T03:49:11;14.95;;;13.35;;
26181;SDS011;13927;51.534;11.866;2022-09-13T03:51:42;15.30;;;13.63;;
26181;SDS011;13927;51.534;11.866;2022-09-13T03:54:19;14.73;;;13.20;;
26181;SDS011;13927;51.534;11.866;2022-09-13T03:57:12;14.52;;;12.40;;
26181;SDS011;13927;51.534;11.866;2022-09-13T03:59:45;13.57;;;12.25;;
26181;SDS011;13927;51.534;11.866;2022-09-13T04:02:14;14.55;;;12.93;;
26181;SDS011;13927;51.534;11.866;2022-09-13T04:04:42;13.48;;;11.55;;
26181;SDS011;13927;51.534;11.866;2022-09-13T04:07:09;12.65;;;11.35;;
26181;SDS011;13927;51.534;11.866;2022-09-13T04:09:42;12.82;;;11.63;;
26181;SDS011;13927;51.534;11.866;2022-09-13T04:12:08;13.02;;;11.70;;
26181;SDS011;13927;51.534;11.866;2022-09-13T04:14:38;14.93;;;12.27;;
26181;SDS011;13927;51.534;11.866;2022-09-13T04:17:04;12.90;;;11.57;;
26181;SDS011;13927;51.534;11.866;2022-09-13T04:19:31;12.68;;;11.30;;
26181;SDS011;13927;51.534;11.866;2022-09-13T04:21:57;14.75;;;11.82;;
26181;SDS011;13927;51.534;11.866;2022-09-13T04:24:25;13.90;;;11.55;;
26181;SDS011;13927;51.534;11.866;2022-09-13T04:26:53;13.98;;;12.15;;
26181;SDS011;13927;51.534;11.866;2022-09-13T04:29:20;13.32;;;11.95;;
26181;SDS011;13927;51.534;11.866;2022-09-13T04:31:48;15.63;;;12.90;;
26181;SDS011;13927;51.534;11.866;2022-09-13T04:34:16;15.32;;;12.98;;
26181;SDS011;13927;51.534;11.866;2022-09-13T04:36:42;16.50;;;13.82;;
26181;SDS011;13927;51.534;11.866;2022-09-13T04:39:10;15.50;;;12.70;;
26181;SDS011;13927;51.534;11.866;2022-09-13T04:41:40;15.27;;;12.68;;
26181;SDS011;13927;51.534;11.866;2022-09-13T04:44:08;13.57;;;11.93;;
26181;SDS011;13927;51.534;11.866;2022-09-13T04:46:39;13.85;;;12.45;;
26181;SDS011;13927;51.534;11.866;2022-09-13T04:49:05;15.63;;;12.85;;
26181;SDS011;13927;51.534;11.866;2022-09-13T04:51:31;14.05;;;12.55;;
26181;SDS011;13927;51.534;11.866;2022-09-13T04:53:57;16.98;;;14.38;;
26181;SDS011;13927;51.534;11.866;2022-09-13T04:56:24;14.10;;;12.60;;
26181;SDS011;13927;51.534;11.866;2022-09-13T04:58:50;16.52;;;12.82;;
26181;SDS011;13927;51.534;11.866;2022-09-13T05:01:18;14.00;;;12.50;;
26181;SDS011;13927;51.534;11.866;2022-09-13T05:03:45;14.75;;;12.85;;
26181;SDS011;13927;51.534;11.866;2022-09-13T05:06:13;14.43;;;11.70;;
26181;SDS011;13927;51.534;11.866;2022-09-13T05:11:20;15.52;;;10.73;;
26181;SDS011;13927;51.534;11.866;2022-09-13T05:13:59;15.43;;;12.35;;
26181;SDS011;13927;51.534;11.866;2022-09-13T05:16:27;18.23;;;13.95;;
26181;SDS011;13927;51.534;11.866;2022-09-13T05:18:55;15.80;;;13.23;;
26181;SDS011;13927;51.534;11.866;2022-09-13T05:21:25;14.43;;;12.32;;
26181;SDS011;13927;51.534;11.866;2022-09-13T05:23:52;15.82;;;13.00;;
26181;SDS011;13927;51.534;11.866;2022-09-13T05:26:19;16.25;;;13.13;;
26181;SDS011;13927;51.534;11.866;2022-09-13T05:28:47;14.20;;;12.68;;
26181;SDS011;13927;51.534;11.866;2022-09-13T05:33:47;13.77;;;12.38;;
26181;SDS011;13927;51.534;11.866;2022-09-13T05:36:20;16.38;;;11.30;;
26181;SDS011;13927;51.534;11.866;2022-09-13T05:38:46;15.55;;;10.68;;
26181;SDS011;13927;51.534;11.866;2022-09-13T05:41:12;12.90;;;10.38;;
26181;SDS011;13927;51.534;11.866;2022-09-13T05:43:38;13.77;;;10.85;;
26181;SDS011;13927;51.534;11.866;2022-09-13T05:46:09;13.43;;;10.70;;
26181;SDS011;13927;51.534;11.866;2022-09-13T05:48:38;12.45;;;10.75;;
26181;SDS011;13927;51.534;11.866;2022-09-13T05:51:08;11.38;;;10.05;;
26181;SDS011;13927;51.534;11.866;2022-09-13T05:53:37;11.37;;;10.03;;
26181;SDS011;13927;51.534;11.866;2022-09-13T05:56:11;14.57;;;10.45;;
26181;SDS011;13927;51.534;11.866;2022-09-13T05:58:41;13.75;;;10.35;;
26181;SDS011;13927;51.534;11.866;2022-09-13T06:01:10;15.10;;;12.05;;
26181;SDS011;13927;51.534;11.866;2022-09-13T06:03:37;14.95;;;12.43;;
26181;SDS011;13927;51.534;11.866;2022-09-13T06:06:03;14.10;;;11.88;;
26181;SDS011;13927;51.534;11.866;2022-09-13T06:08:31;15.13;;;11.68;;
26181;SDS011;13927;51.534;11.866;2022-09-13T06:10:58;15.02;;;10.98;;
26181;SDS011;13927;51.534;11.866;2022-09-13T06:13:38;16.10;;;11.38;;
26181;SDS011;13927;51.534;11.866;2022-09-13T06:16:07;18.02;;;12.20;;
26181;SDS011;13927;51.534;11.866;2022-09-13T06:18:48;13.07;;;11.68;;
26181;SDS011;13927;51.534;11.866;2022-09-13T06:21:18;15.55;;;12.85;;
26181;SDS011;13927;51.534;11.866;2022-09-13T06:23:47;14.30;;;11.60;;
26181;SDS011;13927;51.534;11.866;2022-09-13T06:26:16;15.32;;;11.55;;
26181;SDS011;13927;51.534;11.866;2022-09-13T06:28:53;14.10;;;11.57;;
26181;SDS011;13927;51.534;11.866;2022-09-13T06:31:22;12.55;;;11.20;;
26181;SDS011;13927;51.534;11.866;2022-09-13T06:33:54;14.07;;;10.98;;
26181;SDS011;13927;51.534;11.866;2022-09-13T06:36:22;18.83;;;11.48;;
26181;SDS011;13927;51.534;11.866;2022-09-13T06:38:48;15.80;;;11.88;;
26181;SDS011;13927;51.534;11.866;2022-09-13T06:41:18;17.30;;;11.80;;
26181;SDS011;13927;51.534;11.866;2022-09-13T06:43:50;19.70;;;13.20;;
26181;SDS011;13927;51.534;11.866;2022-09-13T06:46:18;15.93;;;12.60;;
26181;SDS011;13927;51.534;11.866;2022-09-13T06:48:45;17.70;;;12.57;;
26181;SDS011;13927;51.534;11.866;2022-09-13T06:51:11;14.30;;;11.25;;
26181;SDS011;13927;51.534;11.866;2022-09-13T06:53:41;18.52;;;12.40;;
26181;SDS011;13927;51.534;11.866;2022-09-13T06:56:09;13.77;;;12.05;;
26181;SDS011;13927;51.534;11.866;2022-09-13T06:58:38;16.60;;;13.27;;
26181;SDS011;13927;51.534;11.866;2022-09-13T07:06:38;19.40;;;12.95;;
26181;SDS011;13927;51.534;11.866;2022-09-13T07:09:07;26.55;;;15.75;;
26181;SDS011;13927;51.534;11.866;2022-09-13T07:11:46;21.35;;;15.07;;
26181;SDS011;13927;51.534;11.866;2022-09-13T07:14:14;22.42;;;15.20;;
26181;SDS011;13927;51.534;11.866;2022-09-13T07:16:46;18.50;;;14.93;;
26181;SDS011;13927;51.534;11.866;2022-09-13T07:19:19;17.15;;;13.73;;
26181;SDS011;13927;51.534;11.866;2022-09-13T07:21:53;22.25;;;14.48;;
26181;SDS011;13927;51.534;11.866;2022-09-13T07:24:21;19.27;;;13.07;;
26181;SDS011;13927;51.534;11.866;2022-09-13T07:26:47;16.15;;;12.82;;
26181;SDS011;13927;51.534;11.866;2022-09-13T07:29:17;15.48;;;13.15;;
26181;SDS011;13927;51.534;11.866;2022-09-13T07:31:47;15.45;;;12.82;;
26181;SDS011;13927;51.534;11.866;2022-09-13T07:34:16;14.55;;;11.93;;
26181;SDS011;13927;51.534;11.866;2022-09-13T07:36:45;15.00;;;12.48;;
26181;SDS011;13927;51.534;11.866;2022-09-13T07:39:11;13.02;;;11.27;;
26181;SDS011;13927;51.534;11.866;2022-09-13T07:41:38;15.57;;;11.30;;
26181;SDS011;13927;51.534;11.866;2022-09-13T07:44:04;14.57;;;11.88;;
26181;SDS011;13927;51.534;11.866;2022-09-13T07:46:32;13.65;;;10.68;;
26181;SDS011;13927;51.534;11.866;2022-09-13T07:49:02;12.77;;;11.05;;
26181;SDS011;13927;51.534;11.866;2022-09-13T07:51:32;14.02;;;9.75;;
26181;SDS011;13927;51.534;11.866;2022-09-13T07:54:00;12.88;;;10.45;;
26181;SDS011;13927;51.534;11.866;2022-09-13T07:56:32;12.65;;;11.07;;
26181;SDS011;13927;51.534;11.866;2022-09-13T07:59:01;12.45;;;10.02;;
26181;SDS011;13927;51.534;11.866;2022-09-13T08:01:34;13.63;;;10.43;;
26181;SDS011;13927;51.534;11.866;2022-09-13T08:06:35;10.48;;;9.38;;
26181;SDS011;13927;51.534;11.866;2022-09-13T08:09:03;11.27;;;9.60;;
26181;SDS011;13927;51.534;11.866;2022-09-13T08:11:36;11.82;;;9.45;;
26181;SDS011;13927;51.534;11.866;2022-09-13T08:14:13;14.80;;;9.95;;
26181;SDS011;13927;51.534;11.866;2022-09-13T08:16:41;16.33;;;9.60;;
26181;SDS011;13927;51.534;11.866;2022-09-13T08:19:13;10.63;;;9.45;;
26181;SDS011;13927;51.534;11.866;2022-09-13T08:21:41;11.98;;;10.15;;
26181;SDS011;13927;51.534;11.866;2022-09-13T08:24:16;11.95;;;10.18;;
26181;SDS011;13927;51.534;11.866;2022-09-13T08:26:53;11.27;;;9.45;;
26181;SDS011;13927;51.534;11.866;2022-09-13T08:29:19;11.48;;;10.02;;
26181;SDS011;13927;51.534;11.866;2022-09-13T08:31:45;11.60;;;9.80;;
26181;SDS011;13927;51.534;11.866;2022-09-13T08:34:12;14.38;;;10.80;;
26181;SDS011;13927;51.534;11.866;2022-09-13T08:36:39;11.30;;;9.75;;
26181;SDS011;13927;51.534;11.866;2022-09-13T08:39:05;13.98;;;10.30;;
26181;SDS011;13927;51.534;11.866;2022-09-13T08:41:41;14.68;;;10.13;;
26181;SDS011;13927;51.534;11.866;2022-09-13T08:44:44;11.18;;;9.40;;
26181;SDS011;13927;51.534;11.866;2022-09-13T08:50:14;12.90;;;10.30;;
26181;SDS011;13927;51.534;11.866;2022-09-13T09:04:43;10.65;;;9.23;;
26181;SDS011;13927;51.534;11.866;2022-09-13T09:07:17;11.25;;;9.18;;
26181;SDS011;13927;51.534;11.866;2022-09-13T09:10:18;10.30;;;8.27;;
26181;SDS011;13927;51.534;11.866;2022-09-13T09:19:18;9.38;;;8.38;;
26181;SDS011;13927;51.534;11.866;2022-09-13T09:21:54;13.18;;;8.38;;
26181;SDS011;13927;51.534;11.866;2022-09-13T09:24:26;9.23;;;8.27;;
26181;SDS011;13927;51.534;11.866;2022-09-13T09:26:52;8.35;;;7.47;;
26181;SDS011;13927;51.534;11.866;2022-09-13T09:38:21;6.40;;;5.70;;
26181;SDS011;13927;51.534;11.866;2022-09-13T09:41:00;8.20;;;6.00;;
26181;SDS011;13927;51.534;11.866;2022-09-13T09:43:48;6.93;;;5.63;;
26181;SDS011;13927;51.534;11.866;2022-09-13T09:46:23;8.10;;;6.70;;
26181;SDS011;13927;51.534;11.866;2022-09-13T09:48:55;6.93;;;6.07;;
26181;SDS011;13927;51.534;11.866;2022-09-13T09:51:51;7.55;;;6.03;;
26181;SDS011;13927;51.534;11.866;2022-09-13T09:54:23;6.05;;;5.28;;
26181;SDS011;13927;51.534;11.866;2022-09-13T09:56:54;6.45;;;5.47;;
26181;SDS011;13927;51.534;11.866;2022-09-13T09:59:27;7.78;;;5.28;;
26181;SDS011;13927;51.534;11.866;2022-09-13T10:01:56;5.70;;;4.80;;
26181;SDS011;13927;51.534;11.866;2022-09-13T10:04:27;5.95;;;4.45;;
26181;SDS011;13927;51.534;11.866;2022-09-13T10:07:23;7.30;;;4.57;;
26181;SDS011;13927;51.534;11.866;2022-09-13T10:10:01;5.57;;;4.60;;
26181;SDS011;13927;51.534;11.866;2022-09-13T10:12:33;7.05;;;4.07;;
26181;SDS011;13927;51.534;11.866;2022-09-13T10:15:24;4.82;;;4.32;;
26181;SDS011;13927;51.534;11.866;2022-09-13T10:20:42;4.15;;;3.75;;
26181;SDS011;13927;51.534;11.866;2022-09-13T10:23:52;5.18;;;4.20;;
26181;SDS011;13927;51.534;11.866;2022-09-13T10:26:45;4.60;;;3.92;;
26181;SDS011;13927;51.534;11.866;2022-09-13T10:29:14;4.18;;;3.72;;
26181;SDS011;13927;51.534;11.866;2022-09-13T10:31:42;6.20;;;4.28;;
26181;SDS011;13927;51.534;11.866;2022-09-13T10:37:05;5.30;;;4.07;;
26181;SDS011;13927;51.534;11.866;2022-09-13T10:40:42;5.90;;;4.63;;
26181;SDS011;13927;51.534;11.866;2022-09-13T10:43:03;4.25;;;3.85;;
26181;SDS011;13927;51.534;11.866;2022-09-13T10:45:39;4.93;;;4.38;;
26181;SDS011;13927;51.534;11.866;2022-09-13T10:48:10;5.40;;;4.97;;
26181;SDS011;13927;51.534;11.866;2022-09-13T10:50:40;5.50;;;4.50;;
26181;SDS011;13927;51.534;11.866;2022-09-13T10:56:39;5.60;;;4.43;;
26181;SDS011;13927;51.534;11.866;2022-09-13T11:05:08;5.30;;;4.50;;
26181;SDS011;13927;51.534;11.866;2022-09-13T11:22:30;5.50;;;4.30;;
26181;SDS011;13927;51.534;11.866;2022-09-13T11:37:44;6.47;;;3.70;;
26181;SDS011;13927;51.534;11.866;2022-09-13T11:41:04;4.68;;;3.65;;
26181;SDS011;13927;51.534;11.866;2022-09-13T11:44:17;4.20;;;3.65;;
26181;SDS011;13927;51.534;11.866;2022-09-13T11:46:55;5.30;;;3.03;;
26181;SDS011;13927;51.534;11.866;2022-09-13T11:52:54;4.93;;;3.40;;
26181;SDS011;13927;51.534;11.866;2022-09-13T11:55:52;4.07;;;3.05;;
26181;SDS011;13927;51.534;11.866;2022-09-13T11:58:34;5.85;;;3.47;;
26181;SDS011;13927;51.534;11.866;2022-09-13T12:01:19;5.18;;;3.42;;
26181;SDS011;13927;51.534;11.866;2022-09-13T12:06:33;5.40;;;3.80;;
26181;SDS011;13927;51.534;11.866;2022-09-13T12:09:05;7.30;;;3.33;;
26181;SDS011;13927;51.534;11.866;2022-09-13T12:11:42;5.18;;;3.28;;
26181;SDS011;13927;51.534;11.866;2022-09-13T12:14:16;4.72;;;3.92;;
26181;SDS011;13927;51.534;11.866;2022-09-13T12:16:54;4.03;;;3.40;;
26181;SDS011;13927;51.534;11.866;2022-09-13T12:22:02;6.18;;;3.88;;
26181;SDS011;13927;51.534;11.866;2022-09-13T12:24:49;7.07;;;3.60;;
26181;SDS011;13927;51.534;11.866;2022-09-13T12:27:30;3.63;;;3.22;;
26181;SDS011;13927;51.534;11.866;2022-09-13T12:30:15;4.60;;;3.22;;
26181;SDS011;13927;51.534;11.866;2022-09-13T12:32:46;4.75;;;3.60;;
26181;SDS011;13927;51.534;11.866;2022-09-13T12:35:26;5.70;;;3.42;;
26181;SDS011;13927;51.534;11.866;2022-09-13T12:46:48;6.15;;;3.70;;
26181;SDS011;13927;51.534;11.866;2022-09-13T13:12:12;4.78;;;3.42;;
26181;SDS011;13927;51.534;11.866;2022-09-13T13:15:04;4.27;;;3.87;;
26181;SDS011;13927;51.534;11.866;2022-09-13T13:17:55;3.85;;;3.22;;
26181;SDS011;13927;51.534;11.866;2022-09-13T13:23:34;3.78;;;2.80;;
26181;SDS011;13927;51.534;11.866;2022-09-13T13:26:09;3.55;;;3.10;;
26181;SDS011;13927;51.534;11.866;2022-09-13T13:34:27;5.10;;;3.83;;
26181;SDS011;13927;51.534;11.866;2022-09-13T13:37:25;5.93;;;3.42;;
26181;SDS011;13927;51.534;11.866;2022-09-13T13:40:19;10.82;;;5.50;;
26181;SDS011;13927;51.534;11.866;2022-09-13T13:45:55;3.70;;;3.20;;
26181;SDS011;13927;51.534;11.866;2022-09-13T13:48:33;5.95;;;3.67;;
26181;SDS011;13927;51.534;11.866;2022-09-13T13:51:23;5.10;;;3.40;;
26181;SDS011;13927;51.534;11.866;2022-09-13T13:54:00;5.90;;;4.00;;
26181;SDS011;13927;51.534;11.866;2022-09-13T13:56:53;4.68;;;3.85;;
26181;SDS011;13927;51.534;11.866;2022-09-13T13:59:26;7.45;;;3.88;;
26181;SDS011;13927;51.534;11.866;2022-09-13T14:01:57;5.65;;;4.22;;
26181;SDS011;13927;51.534;11.866;2022-09-13T14:04:36;3.97;;;3.58;;
26181;SDS011;13927;51.534;11.866;2022-09-13T14:10:13;5.88;;;4.20;;
26181;SDS011;13927;51.534;11.866;2022-09-13T14:16:22;6.00;;;4.30;;
26181;SDS011;13927;51.534;11.866;2022-09-13T14:19:30;4.90;;;4.40;;
26181;SDS011;13927;51.534;11.866;2022-09-13T14:22:18;8.07;;;4.93;;
26181;SDS011;13927;51.534;11.866;2022-09-13T14:24:50;8.02;;;5.50;;
26181;SDS011;13927;51.534;11.866;2022-09-13T14:27:22;8.27;;;5.13;;
26181;SDS011;13927;51.534;11.866;2022-09-13T14:32:26;8.63;;;5.32;;
26181;SDS011;13927;51.534;11.866;2022-09-13T14:34:56;7.25;;;5.75;;
26181;SDS011;13927;51.534;11.866;2022-09-13T14:37:55;7.85;;;6.10;;
26181;SDS011;13927;51.534;11.866;2022-09-13T14:40:47;7.55;;;5.13;;
26181;SDS011;13927;51.534;11.866;2022-09-13T14:43:17;6.85;;;5.13;;
26181;SDS011;13927;51.534;11.866;2022-09-13T14:45:50;6.50;;;4.82;;
26181;SDS011;13927;51.534;11.866;2022-09-13T14:48:47;5.03;;;4.63;;
26181;SDS011;13927;51.534;11.866;2022-09-13T14:51:22;8.40;;;5.25;;
26181;SDS011;13927;51.534;11.866;2022-09-13T14:57:00;7.25;;;4.28;;
26181;SDS011;13927;51.534;11.866;2022-09-13T14:59:30;5.35;;;4.60;;
26181;SDS011;13927;51.534;11.866;2022-09-13T15:02:26;9.65;;;4.72;;
26181;SDS011;13927;51.534;11.866;2022-09-13T15:04:57;6.05;;;5.32;;
26181;SDS011;13927;51.534;11.866;2022-09-13T15:15:31;9.50;;;5.40;;
26181;SDS011;13927;51.534;11.866;2022-09-13T15:18:44;8.20;;;4.90;;
26181;SDS011;13927;51.534;11.866;2022-09-13T15:23:28;6.53;;;4.93;;
26181;SDS011;13927;51.534;11.866;2022-09-13T15:31:07;9.48;;;5.22;;
26181;SDS011;13927;51.534;11.866;2022-09-13T15:33:34;8.00;;;5.82;;
26181;SDS011;13927;51.534;11.866;2022-09-13T15:39:03;8.07;;;5.43;;
26181;SDS011;13927;51.534;11.866;2022-09-13T15:41:53;87.38;;;40.55;;
26181;SDS011;13927;51.534;11.866;2022-09-13T15:44:24;155.40;;;75.53;;
26181;SDS011;13927;51.534;11.866;2022-09-13T15:46:54;45.25;;;28.42;;
26181;SDS011;13927;51.534;11.866;2022-09-13T15:49:26;58.92;;;36.15;;
26181;SDS011;13927;51.534;11.866;2022-09-13T15:54:30;7.82;;;6.90;;
26181;SDS011;13927;51.534;11.866;2022-09-13T15:57:05;34.67;;;31.05;;
26181;SDS011;13927;51.534;11.866;2022-09-13T15:59:44;50.35;;;43.50;;
26181;SDS011;13927;51.534;11.866;2022-09-13T16:04:49;56.10;;;29.20;;
26181;SDS011;13927;51.534;11.866;2022-09-13T16:07:16;11.50;;;7.90;;
26181;SDS011;13927;51.534;11.866;2022-09-13T16:09:44;8.02;;;6.05;;
26181;SDS011;13927;51.534;11.866;2022-09-13T16:12:12;6.20;;;5.07;;
26181;SDS011;13927;51.534;11.866;2022-09-13T16:14:38;7.55;;;6.38;;
26181;SDS011;13927;51.534;11.866;2022-09-13T16:17:11;7.00;;;5.88;;
26181;SDS011;13927;51.534;11.866;2022-09-13T16:19:50;9.15;;;5.88;;
26181;SDS011;13927;51.534;11.866;2022-09-13T16:22:20;8.55;;;5.35;;
26181;SDS011;13927;51.534;11.866;2022-09-13T16:24:46;6.55;;;4.82;;
26181;SDS011;13927;51.534;11.866;2022-09-13T16:27:13;8.15;;;5.65;;
26181;SDS011;13927;51.534;11.866;2022-09-13T16:29:41;6.53;;;5.15;;
26181;SDS011;13927;51.534;11.866;2022-09-13T16:32:07;7.93;;;5.68;;
26181;SDS011;13927;51.534;11.866;2022-09-13T16:34:33;7.03;;;5.30;;
26181;SDS011;13927;51.534;11.866;2022-09-13T16:36:59;5.75;;;5.00;;
26181;SDS011;13927;51.534;11.866;2022-09-13T16:39:25;7.85;;;5.70;;
26181;SDS011;13927;51.534;11.866;2022-09-13T16:41:51;8.43;;;5.00;;
26181;SDS011;13927;51.534;11.866;2022-09-13T16:44:16;6.60;;;4.25;;
26181;SDS011;13927;51.534;11.866;2022-09-13T16:46:43;4.95;;;4.40;;
26181;SDS011;13927;51.534;11.866;2022-09-13T16:49:11;6.40;;;4.70;;
26181;SDS011;13927;51.534;11.866;2022-09-13T16:51:37;5.25;;;4.43;;
26181;SDS011;13927;51.534;11.866;2022-09-13T16:54:06;8.23;;;6.18;;
26181;SDS011;13927;51.534;11.866;2022-09-13T16:56:32;6.13;;;5.38;;
26181;SDS011;13927;51.534;11.866;2022-09-13T16:59:04;5.70;;;4.95;;
26181;SDS011;13927;51.534;11.866;2022-09-13T17:01:30;9.40;;;5.90;;
26181;SDS011;13927;51.534;11.866;2022-09-13T17:03:56;9.95;;;7.05;;
26181;SDS011;13927;51.534;11.866;2022-09-13T17:06:22;12.38;;;8.38;;
26181;SDS011;13927;51.534;11.866;2022-09-13T17:08:54;22.23;;;12.93;;
26181;SDS011;13927;51.534;11.866;2022-09-13T17:11:26;19.20;;;12.55;;
26181;SDS011;13927;51.534;11.866;2022-09-13T17:13:55;16.00;;;10.70;;
26181;SDS011;13927;51.534;11.866;2022-09-13T17:16:28;17.88;;;11.32;;
26181;SDS011;13927;51.534;11.866;2022-09-13T17:18:59;8.40;;;5.97;;
26181;SDS011;13927;51.534;11.866;2022-09-13T17:21:31;12.93;;;8.18;;
26181;SDS011;13927;51.534;11.866;2022-09-13T17:23:57;11.45;;;8.13;;
26181;SDS011;13927;51.534;11.866;2022-09-13T17:26:24;8.52;;;6.55;;
26181;SDS011;13927;51.534;11.866;2022-09-13T17:28:50;8.70;;;6.50;;
26181;SDS011;13927;51.534;11.866;2022-09-13T17:31:16;9.48;;;6.32;;
26181;SDS011;13927;51.534;11.866;2022-09-13T17:33:43;9.07;;;7.55;;
26181;SDS011;13927;51.534;11.866;2022-09-13T17:36:09;9.70;;;7.05;;
26181;SDS011;13927;51.534;11.866;2022-09-13T17:38:37;8.68;;;5.50;;
26181;SDS011;13927;51.534;11.866;2022-09-13T17:41:06;8.32;;;5.30;;
26181;SDS011;13927;51.534;11.866;2022-09-13T17:43:34;5.60;;;4.65;;
26181;SDS011;13927;51.534;11.866;2022-09-13T17:46:05;5.30;;;4.43;;
26181;SDS011;13927;51.534;11.866;2022-09-13T17:48:37;5.35;;;4.78;;
26181;SDS011;13927;51.534;11.866;2022-09-13T17:51:09;7.07;;;4.78;;
26181;SDS011;13927;51.534;11.866;2022-09-13T17:53:44;5.55;;;4.45;;
26181;SDS011;13927;51.534;11.866;2022-09-13T17:56:19;8.30;;;5.07;;
26181;SDS011;13927;51.534;11.866;2022-09-13T17:59:12;6.47;;;5.57;;
26181;SDS011;13927;51.534;11.866;2022-09-13T18:01:48;6.30;;;4.63;;
26181;SDS011;13927;51.534;11.866;2022-09-13T18:04:17;5.78;;;5.18;;
26181;SDS011;13927;51.534;11.866;2022-09-13T18:06:47;7.30;;;5.88;;
26181;SDS011;13927;51.534;11.866;2022-09-13T18:09:15;7.07;;;5.97;;
26181;SDS011;13927;51.534;11.866;2022-09-13T18:11:41;5.60;;;5.07;;
26181;SDS011;13927;51.534;11.866;2022-09-13T18:14:11;6.82;;;6.05;;
26181;SDS011;13927;51.534;11.866;2022-09-13T18:16:39;6.72;;;5.38;;
26181;SDS011;13927;51.534;11.866;2022-09-13T18:19:09;5.80;;;4.50;;
26181;SDS011;13927;51.534;11.866;2022-09-13T18:21:38;6.22;;;5.30;;
26181;SDS011;13927;51.534;11.866;2022-09-13T18:24:04;5.85;;;5.20;;
26181;SDS011;13927;51.534;11.866;2022-09-13T18:26:40;8.43;;;5.03;;
26181;SDS011;13927;51.534;11.866;2022-09-13T18:29:08;5.45;;;4.93;;
26181;SDS011;13927;51.534;11.866;2022-09-13T18:31:35;6.55;;;5.32;;
26181;SDS011;13927;51.534;11.866;2022-09-13T18:34:04;5.35;;;4.85;;
26181;SDS011;13927;51.534;11.866;2022-09-13T18:36:36;6.13;;;5.53;;
26181;SDS011;13927;51.534;11.866;2022-09-13T18:39:02;7.50;;;5.60;;
26181;SDS011;13927;51.534;11.866;2022-09-13T18:41:31;8.35;;;5.40;;
26181;SDS011;13927;51.534;11.866;2022-09-13T18:43:59;7.45;;;5.25;;
26181;SDS011;13927;51.534;11.866;2022-09-13T18:46:27;5.72;;;4.70;;
26181;SDS011;13927;51.534;11.866;2022-09-13T18:48:55;7.00;;;5.70;;
26181;SDS011;13927;51.534;11.866;2022-09-13T18:51:22;10.05;;;7.40;;
26181;SDS011;13927;51.534;11.866;2022-09-13T18:53:54;9.48;;;5.80;;